sensor_id;sensor_type;location;lat;lon;timestamp;P1;durP1;ratioP1;P2;durP2;ratioP2
12437;SDS011;6283;51.330;12.374;2023-04-15T00:02:13;6.03;;;5.07;;
12437;SDS011;6283;51.330;12.374;2023-04-15T00:04:40;6.77;;;5.37;;
12437;SDS011;6283;51.330;12.374;2023-04-15T00:07:05;5.97;;;4.93;;
12437;SDS011;6283;51.330;12.374;2023-04-15T00:09:31;7.30;;;5.90;;
12437;SDS011;6283;51.330;12.374;2023-04-15T00:11:56;7.30;;;5.63;;
12437;SDS011;6283;51.330;12.374;2023-04-15T00:14:22;7.57;;;6.30;;
12437;SDS011;6283;51.330;12.374;2023-04-15T00:16:48;8.67;;;6.90;;
12437;SDS011;6283;51.330;12.374;2023-04-15T00:19:19;8.43;;;6.70;;
12437;SDS011;6283;51.330;12.374;2023-04-15T00:21:45;7.47;;;6.67;;
12437;SDS011;6283;51.330;12.374;2023-04-15T00:24:11;7.33;;;6.30;;
12437;SDS011;6283;51.330;12.374;2023-04-15T00:26:37;8.13;;;6.17;;
12437;SDS011;6283;51.330;12.374;2023-04-15T00:29:03;7.20;;;5.90;;
12437;SDS011;6283;51.330;12.374;2023-04-15T00:31:29;7.47;;;5.90;;
12437;SDS011;6283;51.330;12.374;2023-04-15T00:33:55;6.93;;;5.47;;
12437;SDS011;6283;51.330;12.374;2023-04-15T00:36:21;6.50;;;5.57;;
12437;SDS011;6283;51.330;12.374;2023-04-15T00:38:47;6.67;;;5.03;;
12437;SDS011;6283;51.330;12.374;2023-04-15T00:41:13;6.60;;;5.10;;
12437;SDS011;6283;51.330;12.374;2023-04-15T00:43:38;6.50;;;5.47;;
12437;SDS011;6283;51.330;12.374;2023-04-15T00:46:05;5.50;;;4.70;;
12437;SDS011;6283;51.330;12.374;2023-04-15T00:48:31;5.97;;;4.47;;
12437;SDS011;6283;51.330;12.374;2023-04-15T00:50:57;6.27;;;5.17;;
12437;SDS011;6283;51.330;12.374;2023-04-15T00:53:23;6.00;;;5.00;;
12437;SDS011;6283;51.330;12.374;2023-04-15T00:55:49;5.73;;;5.00;;
12437;SDS011;6283;51.330;12.374;2023-04-15T00:58:15;7.63;;;5.17;;
12437;SDS011;6283;51.330;12.374;2023-04-15T01:00:41;6.47;;;5.07;;
12437;SDS011;6283;51.330;12.374;2023-04-15T01:03:07;6.33;;;5.33;;
12437;SDS011;6283;51.330;12.374;2023-04-15T01:05:33;7.03;;;5.60;;
12437;SDS011;6283;51.330;12.374;2023-04-15T01:08:00;6.67;;;5.27;;
12437;SDS011;6283;51.330;12.374;2023-04-15T01:10:26;7.60;;;6.00;;
12437;SDS011;6283;51.330;12.374;2023-04-15T01:12:52;7.47;;;5.83;;
12437;SDS011;6283;51.330;12.374;2023-04-15T01:15:18;8.37;;;6.53;;
12437;SDS011;6283;51.330;12.374;2023-04-15T01:17:45;7.03;;;5.90;;
12437;SDS011;6283;51.330;12.374;2023-04-15T01:20:11;6.37;;;5.70;;
12437;SDS011;6283;51.330;12.374;2023-04-15T01:22:37;7.30;;;5.57;;
12437;SDS011;6283;51.330;12.374;2023-04-15T01:25:10;7.87;;;6.07;;
12437;SDS011;6283;51.330;12.374;2023-04-15T01:27:39;7.37;;;5.87;;
12437;SDS011;6283;51.330;12.374;2023-04-15T01:30:06;7.50;;;6.17;;
12437;SDS011;6283;51.330;12.374;2023-04-15T01:32:32;9.03;;;6.40;;
12437;SDS011;6283;51.330;12.374;2023-04-15T01:34:58;7.60;;;6.10;;
12437;SDS011;6283;51.330;12.374;2023-04-15T01:37:24;7.20;;;5.70;;
12437;SDS011;6283;51.330;12.374;2023-04-15T01:39:50;7.43;;;5.57;;
12437;SDS011;6283;51.330;12.374;2023-04-15T01:42:16;7.17;;;5.97;;
12437;SDS011;6283;51.330;12.374;2023-04-15T01:44:41;6.37;;;5.03;;
12437;SDS011;6283;51.330;12.374;2023-04-15T01:47:07;7.60;;;5.57;;
12437;SDS011;6283;51.330;12.374;2023-04-15T01:49:33;7.03;;;5.90;;
12437;SDS011;6283;51.330;12.374;2023-04-15T01:51:58;6.43;;;5.43;;
12437;SDS011;6283;51.330;12.374;2023-04-15T01:54:24;6.90;;;5.07;;
12437;SDS011;6283;51.330;12.374;2023-04-15T01:56:51;6.57;;;5.50;;
12437;SDS011;6283;51.330;12.374;2023-04-15T01:59:17;8.20;;;5.90;;
12437;SDS011;6283;51.330;12.374;2023-04-15T02:01:43;6.87;;;5.80;;
12437;SDS011;6283;51.330;12.374;2023-04-15T02:04:09;8.53;;;6.63;;
12437;SDS011;6283;51.330;12.374;2023-04-15T02:06:40;7.43;;;6.07;;
12437;SDS011;6283;51.330;12.374;2023-04-15T02:09:10;7.27;;;6.00;;
12437;SDS011;6283;51.330;12.374;2023-04-15T02:11:35;8.67;;;6.77;;
12437;SDS011;6283;51.330;12.374;2023-04-15T02:14:02;9.40;;;6.33;;
12437;SDS011;6283;51.330;12.374;2023-04-15T02:16:31;8.17;;;6.10;;
12437;SDS011;6283;51.330;12.374;2023-04-15T02:18:58;7.13;;;5.23;;
12437;SDS011;6283;51.330;12.374;2023-04-15T02:21:25;6.87;;;4.93;;
12437;SDS011;6283;51.330;12.374;2023-04-15T02:23:50;5.90;;;4.37;;
12437;SDS011;6283;51.330;12.374;2023-04-15T02:26:17;6.83;;;4.97;;
12437;SDS011;6283;51.330;12.374;2023-04-15T02:28:43;5.97;;;4.47;;
12437;SDS011;6283;51.330;12.374;2023-04-15T02:31:09;6.80;;;4.83;;
12437;SDS011;6283;51.330;12.374;2023-04-15T02:33:35;5.40;;;4.50;;
12437;SDS011;6283;51.330;12.374;2023-04-15T02:36:01;6.03;;;4.27;;
12437;SDS011;6283;51.330;12.374;2023-04-15T02:38:27;6.90;;;4.50;;
12437;SDS011;6283;51.330;12.374;2023-04-15T02:40:53;7.20;;;5.30;;
12437;SDS011;6283;51.330;12.374;2023-04-15T02:43:18;6.80;;;5.50;;
12437;SDS011;6283;51.330;12.374;2023-04-15T02:45:45;7.83;;;5.47;;
12437;SDS011;6283;51.330;12.374;2023-04-15T02:48:11;8.93;;;6.07;;
12437;SDS011;6283;51.330;12.374;2023-04-15T02:50:37;6.17;;;4.97;;
12437;SDS011;6283;51.330;12.374;2023-04-15T02:53:06;7.30;;;5.57;;
12437;SDS011;6283;51.330;12.374;2023-04-15T02:55:32;7.27;;;5.60;;
12437;SDS011;6283;51.330;12.374;2023-04-15T02:57:57;7.57;;;6.07;;
12437;SDS011;6283;51.330;12.374;2023-04-15T03:00:24;6.03;;;5.23;;
12437;SDS011;6283;51.330;12.374;2023-04-15T03:02:51;6.87;;;5.23;;
12437;SDS011;6283;51.330;12.374;2023-04-15T03:05:22;7.03;;;5.67;;
12437;SDS011;6283;51.330;12.374;2023-04-15T03:07:51;8.37;;;6.40;;
12437;SDS011;6283;51.330;12.374;2023-04-15T03:10:17;7.53;;;5.87;;
12437;SDS011;6283;51.330;12.374;2023-04-15T03:12:42;7.03;;;5.80;;
12437;SDS011;6283;51.330;12.374;2023-04-15T03:15:08;7.87;;;6.33;;
12437;SDS011;6283;51.330;12.374;2023-04-15T03:17:34;9.13;;;6.70;;
12437;SDS011;6283;51.330;12.374;2023-04-15T03:20:00;7.93;;;5.90;;
12437;SDS011;6283;51.330;12.374;2023-04-15T03:22:28;8.70;;;6.97;;
12437;SDS011;6283;51.330;12.374;2023-04-15T03:24:55;8.57;;;6.27;;
12437;SDS011;6283;51.330;12.374;2023-04-15T03:27:20;9.50;;;6.83;;
12437;SDS011;6283;51.330;12.374;2023-04-15T03:29:46;12.20;;;7.30;;
12437;SDS011;6283;51.330;12.374;2023-04-15T03:32:12;12.17;;;8.67;;
12437;SDS011;6283;51.330;12.374;2023-04-15T03:34:39;11.30;;;8.47;;
12437;SDS011;6283;51.330;12.374;2023-04-15T03:37:08;11.33;;;7.97;;
12437;SDS011;6283;51.330;12.374;2023-04-15T03:39:33;11.57;;;8.30;;
12437;SDS011;6283;51.330;12.374;2023-04-15T03:41:59;10.47;;;6.80;;
12437;SDS011;6283;51.330;12.374;2023-04-15T03:44:25;9.90;;;6.90;;
12437;SDS011;6283;51.330;12.374;2023-04-15T03:46:51;12.60;;;7.33;;
12437;SDS011;6283;51.330;12.374;2023-04-15T03:49:17;8.27;;;6.30;;
12437;SDS011;6283;51.330;12.374;2023-04-15T03:51:43;7.43;;;5.33;;
12437;SDS011;6283;51.330;12.374;2023-04-15T03:54:09;8.00;;;5.73;;
12437;SDS011;6283;51.330;12.374;2023-04-15T03:56:35;6.07;;;5.10;;
12437;SDS011;6283;51.330;12.374;2023-04-15T03:59:01;7.93;;;5.47;;
12437;SDS011;6283;51.330;12.374;2023-04-15T04:01:27;6.90;;;5.10;;
12437;SDS011;6283;51.330;12.374;2023-04-15T04:03:52;7.67;;;5.53;;
12437;SDS011;6283;51.330;12.374;2023-04-15T04:06:18;6.93;;;4.67;;
12437;SDS011;6283;51.330;12.374;2023-04-15T04:08:44;6.30;;;4.70;;
12437;SDS011;6283;51.330;12.374;2023-04-15T04:11:10;4.93;;;4.37;;
12437;SDS011;6283;51.330;12.374;2023-04-15T04:13:35;6.17;;;4.30;;
12437;SDS011;6283;51.330;12.374;2023-04-15T04:16:01;6.63;;;4.97;;
12437;SDS011;6283;51.330;12.374;2023-04-15T04:18:28;5.10;;;4.03;;
12437;SDS011;6283;51.330;12.374;2023-04-15T04:20:55;6.17;;;4.70;;
12437;SDS011;6283;51.330;12.374;2023-04-15T04:23:21;6.93;;;4.90;;
12437;SDS011;6283;51.330;12.374;2023-04-15T04:25:47;5.47;;;4.23;;
12437;SDS011;6283;51.330;12.374;2023-04-15T04:28:12;6.73;;;5.07;;
12437;SDS011;6283;51.330;12.374;2023-04-15T04:30:38;5.77;;;4.63;;
12437;SDS011;6283;51.330;12.374;2023-04-15T04:33:04;5.80;;;4.67;;
12437;SDS011;6283;51.330;12.374;2023-04-15T04:35:31;6.03;;;4.67;;
12437;SDS011;6283;51.330;12.374;2023-04-15T04:37:58;6.37;;;4.50;;
12437;SDS011;6283;51.330;12.374;2023-04-15T04:40:25;7.27;;;5.47;;
12437;SDS011;6283;51.330;12.374;2023-04-15T04:42:51;6.07;;;4.87;;
12437;SDS011;6283;51.330;12.374;2023-04-15T04:45:17;5.80;;;4.53;;
12437;SDS011;6283;51.330;12.374;2023-04-15T04:47:43;5.60;;;4.90;;
12437;SDS011;6283;51.330;12.374;2023-04-15T04:50:08;6.23;;;4.83;;
12437;SDS011;6283;51.330;12.374;2023-04-15T04:52:35;6.30;;;4.97;;
12437;SDS011;6283;51.330;12.374;2023-04-15T04:55:01;6.47;;;5.00;;
12437;SDS011;6283;51.330;12.374;2023-04-15T04:57:27;6.07;;;4.50;;
12437;SDS011;6283;51.330;12.374;2023-04-15T04:59:52;6.67;;;5.13;;
12437;SDS011;6283;51.330;12.374;2023-04-15T05:02:18;7.23;;;4.80;;
12437;SDS011;6283;51.330;12.374;2023-04-15T05:04:43;6.87;;;4.93;;
12437;SDS011;6283;51.330;12.374;2023-04-15T05:07:09;4.67;;;4.00;;
12437;SDS011;6283;51.330;12.374;2023-04-15T05:09:35;8.47;;;4.90;;
12437;SDS011;6283;51.330;12.374;2023-04-15T05:12:01;7.53;;;4.53;;
12437;SDS011;6283;51.330;12.374;2023-04-15T05:14:30;5.13;;;4.63;;
12437;SDS011;6283;51.330;12.374;2023-04-15T05:16:56;6.40;;;4.63;;
12437;SDS011;6283;51.330;12.374;2023-04-15T05:19:21;5.90;;;5.00;;
12437;SDS011;6283;51.330;12.374;2023-04-15T05:21:47;6.53;;;4.57;;
12437;SDS011;6283;51.330;12.374;2023-04-15T05:24:13;5.23;;;4.47;;
12437;SDS011;6283;51.330;12.374;2023-04-15T05:26:38;5.60;;;4.37;;
12437;SDS011;6283;51.330;12.374;2023-04-15T05:29:04;5.50;;;4.57;;
12437;SDS011;6283;51.330;12.374;2023-04-15T05:31:30;7.10;;;5.70;;
12437;SDS011;6283;51.330;12.374;2023-04-15T05:33:55;5.77;;;4.83;;
12437;SDS011;6283;51.330;12.374;2023-04-15T05:36:21;6.00;;;4.90;;
12437;SDS011;6283;51.330;12.374;2023-04-15T05:38:47;6.57;;;5.37;;
12437;SDS011;6283;51.330;12.374;2023-04-15T05:41:12;7.17;;;5.87;;
12437;SDS011;6283;51.330;12.374;2023-04-15T05:43:39;6.33;;;5.37;;
12437;SDS011;6283;51.330;12.374;2023-04-15T05:46:05;6.43;;;5.17;;
12437;SDS011;6283;51.330;12.374;2023-04-15T05:48:32;5.53;;;4.83;;
12437;SDS011;6283;51.330;12.374;2023-04-15T05:50:58;8.77;;;5.80;;
12437;SDS011;6283;51.330;12.374;2023-04-15T05:53:24;8.17;;;6.57;;
12437;SDS011;6283;51.330;12.374;2023-04-15T05:55:50;7.77;;;6.33;;
12437;SDS011;6283;51.330;12.374;2023-04-15T05:58:16;7.60;;;6.07;;
12437;SDS011;6283;51.330;12.374;2023-04-15T06:00:41;8.83;;;6.90;;
12437;SDS011;6283;51.330;12.374;2023-04-15T06:03:07;6.63;;;5.50;;
12437;SDS011;6283;51.330;12.374;2023-04-15T06:05:33;6.70;;;5.57;;
12437;SDS011;6283;51.330;12.374;2023-04-15T06:07:59;7.50;;;6.63;;
12437;SDS011;6283;51.330;12.374;2023-04-15T06:10:24;7.37;;;6.57;;
12437;SDS011;6283;51.330;12.374;2023-04-15T06:12:51;7.93;;;6.63;;
12437;SDS011;6283;51.330;12.374;2023-04-15T06:15:17;7.10;;;5.77;;
12437;SDS011;6283;51.330;12.374;2023-04-15T06:17:43;7.57;;;6.27;;
12437;SDS011;6283;51.330;12.374;2023-04-15T06:20:09;8.40;;;6.60;;
12437;SDS011;6283;51.330;12.374;2023-04-15T06:22:36;7.07;;;6.37;;
12437;SDS011;6283;51.330;12.374;2023-04-15T06:25:03;7.30;;;6.40;;
12437;SDS011;6283;51.330;12.374;2023-04-15T06:27:29;7.73;;;6.37;;
12437;SDS011;6283;51.330;12.374;2023-04-15T06:29:55;7.70;;;6.90;;
12437;SDS011;6283;51.330;12.374;2023-04-15T06:32:20;7.07;;;6.37;;
12437;SDS011;6283;51.330;12.374;2023-04-15T06:34:46;6.60;;;5.90;;
12437;SDS011;6283;51.330;12.374;2023-04-15T06:37:11;7.57;;;6.77;;
12437;SDS011;6283;51.330;12.374;2023-04-15T06:39:40;6.53;;;5.77;;
12437;SDS011;6283;51.330;12.374;2023-04-15T06:42:07;5.97;;;5.37;;
12437;SDS011;6283;51.330;12.374;2023-04-15T06:44:33;7.13;;;6.00;;
12437;SDS011;6283;51.330;12.374;2023-04-15T06:46:59;6.83;;;6.13;;
12437;SDS011;6283;51.330;12.374;2023-04-15T06:49:25;7.33;;;6.13;;
12437;SDS011;6283;51.330;12.374;2023-04-15T06:51:50;7.37;;;5.93;;
12437;SDS011;6283;51.330;12.374;2023-04-15T06:54:16;7.37;;;6.53;;
12437;SDS011;6283;51.330;12.374;2023-04-15T06:56:42;7.30;;;6.50;;
12437;SDS011;6283;51.330;12.374;2023-04-15T06:59:08;7.87;;;6.90;;
12437;SDS011;6283;51.330;12.374;2023-04-15T07:01:33;7.67;;;6.47;;
12437;SDS011;6283;51.330;12.374;2023-04-15T07:03:59;7.27;;;6.40;;
12437;SDS011;6283;51.330;12.374;2023-04-15T07:06:25;7.47;;;6.67;;
12437;SDS011;6283;51.330;12.374;2023-04-15T07:08:51;8.00;;;6.73;;
12437;SDS011;6283;51.330;12.374;2023-04-15T07:11:18;8.70;;;6.87;;
12437;SDS011;6283;51.330;12.374;2023-04-15T07:13:45;8.17;;;6.87;;
12437;SDS011;6283;51.330;12.374;2023-04-15T07:16:10;8.70;;;6.87;;
12437;SDS011;6283;51.330;12.374;2023-04-15T07:18:36;6.60;;;5.83;;
12437;SDS011;6283;51.330;12.374;2023-04-15T07:21:02;7.93;;;6.07;;
12437;SDS011;6283;51.330;12.374;2023-04-15T07:23:27;8.67;;;6.47;;
12437;SDS011;6283;51.330;12.374;2023-04-15T07:25:53;8.57;;;6.00;;
12437;SDS011;6283;51.330;12.374;2023-04-15T07:28:19;7.00;;;5.77;;
12437;SDS011;6283;51.330;12.374;2023-04-15T07:30:44;6.50;;;5.40;;
12437;SDS011;6283;51.330;12.374;2023-04-15T07:33:10;7.27;;;5.37;;
12437;SDS011;6283;51.330;12.374;2023-04-15T07:35:36;6.77;;;5.30;;
12437;SDS011;6283;51.330;12.374;2023-04-15T07:38:01;6.27;;;5.67;;
12437;SDS011;6283;51.330;12.374;2023-04-15T07:40:27;7.33;;;5.87;;
12437;SDS011;6283;51.330;12.374;2023-04-15T07:42:54;7.20;;;6.47;;
12437;SDS011;6283;51.330;12.374;2023-04-15T07:45:22;6.83;;;5.80;;
12437;SDS011;6283;51.330;12.374;2023-04-15T07:47:48;7.30;;;5.90;;
12437;SDS011;6283;51.330;12.374;2023-04-15T07:50:15;8.77;;;6.30;;
12437;SDS011;6283;51.330;12.374;2023-04-15T07:52:41;8.60;;;6.43;;
12437;SDS011;6283;51.330;12.374;2023-04-15T07:55:08;9.83;;;6.80;;
12437;SDS011;6283;51.330;12.374;2023-04-15T07:57:34;9.33;;;6.53;;
12437;SDS011;6283;51.330;12.374;2023-04-15T08:00:01;8.50;;;6.63;;
12437;SDS011;6283;51.330;12.374;2023-04-15T08:02:29;10.90;;;6.63;;
12437;SDS011;6283;51.330;12.374;2023-04-15T08:04:55;9.83;;;7.37;;
12437;SDS011;6283;51.330;12.374;2023-04-15T08:07:21;8.00;;;6.43;;
12437;SDS011;6283;51.330;12.374;2023-04-15T08:09:47;9.10;;;6.87;;
12437;SDS011;6283;51.330;12.374;2023-04-15T08:12:13;8.57;;;6.50;;
12437;SDS011;6283;51.330;12.374;2023-04-15T08:14:39;8.90;;;6.97;;
12437;SDS011;6283;51.330;12.374;2023-04-15T08:17:05;10.00;;;6.53;;
12437;SDS011;6283;51.330;12.374;2023-04-15T08:19:31;7.27;;;5.77;;
12437;SDS011;6283;51.330;12.374;2023-04-15T08:21:57;7.30;;;6.10;;
12437;SDS011;6283;51.330;12.374;2023-04-15T08:24:23;9.43;;;6.83;;
12437;SDS011;6283;51.330;12.374;2023-04-15T08:26:50;9.07;;;6.70;;
12437;SDS011;6283;51.330;12.374;2023-04-15T08:29:16;8.17;;;6.63;;
12437;SDS011;6283;51.330;12.374;2023-04-15T08:31:42;9.27;;;7.00;;
12437;SDS011;6283;51.330;12.374;2023-04-15T08:34:08;9.00;;;6.70;;
12437;SDS011;6283;51.330;12.374;2023-04-15T08:36:35;10.13;;;7.00;;
12437;SDS011;6283;51.330;12.374;2023-04-15T08:39:01;7.40;;;6.50;;
12437;SDS011;6283;51.330;12.374;2023-04-15T08:41:29;7.33;;;6.53;;
12437;SDS011;6283;51.330;12.374;2023-04-15T08:44:06;9.70;;;7.40;;
12437;SDS011;6283;51.330;12.374;2023-04-15T08:46:32;9.60;;;7.97;;
12437;SDS011;6283;51.330;12.374;2023-04-15T08:49:02;10.30;;;7.67;;
12437;SDS011;6283;51.330;12.374;2023-04-15T08:51:29;9.83;;;8.03;;
12437;SDS011;6283;51.330;12.374;2023-04-15T08:53:55;10.93;;;7.63;;
12437;SDS011;6283;51.330;12.374;2023-04-15T08:56:23;9.53;;;7.90;;
12437;SDS011;6283;51.330;12.374;2023-04-15T08:58:50;11.83;;;8.07;;
12437;SDS011;6283;51.330;12.374;2023-04-15T09:01:16;11.47;;;8.73;;
12437;SDS011;6283;51.330;12.374;2023-04-15T09:03:43;12.43;;;9.30;;
12437;SDS011;6283;51.330;12.374;2023-04-15T09:06:09;13.47;;;9.10;;
12437;SDS011;6283;51.330;12.374;2023-04-15T09:08:35;12.57;;;9.00;;
12437;SDS011;6283;51.330;12.374;2023-04-15T09:11:04;11.87;;;9.10;;
12437;SDS011;6283;51.330;12.374;2023-04-15T09:13:30;12.00;;;9.43;;
12437;SDS011;6283;51.330;12.374;2023-04-15T09:15:56;11.00;;;8.47;;
12437;SDS011;6283;51.330;12.374;2023-04-15T09:18:32;11.10;;;8.90;;
12437;SDS011;6283;51.330;12.374;2023-04-15T09:21:11;12.73;;;9.03;;
12437;SDS011;6283;51.330;12.374;2023-04-15T09:23:57;13.87;;;9.73;;
12437;SDS011;6283;51.330;12.374;2023-04-15T09:26:34;12.40;;;8.73;;
12437;SDS011;6283;51.330;12.374;2023-04-15T09:29:05;12.40;;;9.53;;
12437;SDS011;6283;51.330;12.374;2023-04-15T09:31:31;13.10;;;10.00;;
12437;SDS011;6283;51.330;12.374;2023-04-15T09:33:57;13.50;;;10.13;;
12437;SDS011;6283;51.330;12.374;2023-04-15T09:36:23;14.20;;;10.20;;
12437;SDS011;6283;51.330;12.374;2023-04-15T09:38:58;14.40;;;10.83;;
12437;SDS011;6283;51.330;12.374;2023-04-15T09:41:25;15.73;;;10.87;;
12437;SDS011;6283;51.330;12.374;2023-04-15T09:43:51;15.27;;;11.20;;
12437;SDS011;6283;51.330;12.374;2023-04-15T09:46:20;13.87;;;10.77;;
12437;SDS011;6283;51.330;12.374;2023-04-15T09:49:10;14.77;;;10.27;;
12437;SDS011;6283;51.330;12.374;2023-04-15T09:51:37;15.93;;;11.17;;
12437;SDS011;6283;51.330;12.374;2023-04-15T09:54:03;15.00;;;11.03;;
12437;SDS011;6283;51.330;12.374;2023-04-15T09:56:35;16.83;;;12.20;;
12437;SDS011;6283;51.330;12.374;2023-04-15T09:59:03;15.67;;;11.73;;
12437;SDS011;6283;51.330;12.374;2023-04-15T10:01:29;15.03;;;11.27;;
12437;SDS011;6283;51.330;12.374;2023-04-15T10:03:55;15.50;;;11.90;;
12437;SDS011;6283;51.330;12.374;2023-04-15T10:06:22;17.77;;;12.30;;
12437;SDS011;6283;51.330;12.374;2023-04-15T10:08:50;15.93;;;12.37;;
12437;SDS011;6283;51.330;12.374;2023-04-15T10:11:17;16.73;;;12.63;;
12437;SDS011;6283;51.330;12.374;2023-04-15T10:13:45;18.90;;;13.37;;
12437;SDS011;6283;51.330;12.374;2023-04-15T10:16:14;18.37;;;13.23;;
12437;SDS011;6283;51.330;12.374;2023-04-15T10:18:44;18.27;;;12.53;;
12437;SDS011;6283;51.330;12.374;2023-04-15T10:21:12;17.50;;;12.30;;
12437;SDS011;6283;51.330;12.374;2023-04-15T10:23:40;16.67;;;12.53;;
12437;SDS011;6283;51.330;12.374;2023-04-15T10:26:06;16.37;;;11.47;;
12437;SDS011;6283;51.330;12.374;2023-04-15T10:28:34;18.57;;;13.50;;
12437;SDS011;6283;51.330;12.374;2023-04-15T10:30:59;18.20;;;13.03;;
12437;SDS011;6283;51.330;12.374;2023-04-15T10:33:26;17.63;;;13.23;;
12437;SDS011;6283;51.330;12.374;2023-04-15T10:35:53;19.30;;;13.47;;
12437;SDS011;6283;51.330;12.374;2023-04-15T10:43:54;19.37;;;14.23;;
12437;SDS011;6283;51.330;12.374;2023-04-15T10:51:32;19.60;;;14.17;;
12437;SDS011;6283;51.330;12.374;2023-04-15T10:53:58;18.90;;;13.07;;
12437;SDS011;6283;51.330;12.374;2023-04-15T10:56:24;18.07;;;13.90;;
12437;SDS011;6283;51.330;12.374;2023-04-15T10:58:50;19.73;;;14.33;;
12437;SDS011;6283;51.330;12.374;2023-04-15T11:01:15;16.93;;;13.37;;
12437;SDS011;6283;51.330;12.374;2023-04-15T11:03:44;18.73;;;13.23;;
12437;SDS011;6283;51.330;12.374;2023-04-15T11:06:10;17.37;;;13.00;;
12437;SDS011;6283;51.330;12.374;2023-04-15T11:08:52;17.73;;;13.10;;
12437;SDS011;6283;51.330;12.374;2023-04-15T11:11:22;17.17;;;13.00;;
12437;SDS011;6283;51.330;12.374;2023-04-15T11:14:09;17.43;;;13.17;;
12437;SDS011;6283;51.330;12.374;2023-04-15T11:16:42;17.87;;;14.27;;
12437;SDS011;6283;51.330;12.374;2023-04-15T11:19:10;16.00;;;12.57;;
12437;SDS011;6283;51.330;12.374;2023-04-15T11:21:36;15.93;;;13.47;;
12437;SDS011;6283;51.330;12.374;2023-04-15T11:24:02;17.47;;;13.33;;
12437;SDS011;6283;51.330;12.374;2023-04-15T11:26:28;18.00;;;13.80;;
12437;SDS011;6283;51.330;12.374;2023-04-15T11:28:53;16.87;;;13.10;;
12437;SDS011;6283;51.330;12.374;2023-04-15T11:31:19;14.37;;;11.70;;
12437;SDS011;6283;51.330;12.374;2023-04-15T11:36:27;17.83;;;12.80;;
12437;SDS011;6283;51.330;12.374;2023-04-15T11:38:54;15.83;;;12.77;;
12437;SDS011;6283;51.330;12.374;2023-04-15T11:41:24;13.93;;;11.70;;
12437;SDS011;6283;51.330;12.374;2023-04-15T11:43:50;15.53;;;12.27;;
12437;SDS011;6283;51.330;12.374;2023-04-15T11:46:16;15.40;;;12.07;;
12437;SDS011;6283;51.330;12.374;2023-04-15T11:48:43;14.10;;;11.30;;
12437;SDS011;6283;51.330;12.374;2023-04-15T11:51:10;15.80;;;12.33;;
12437;SDS011;6283;51.330;12.374;2023-04-15T11:53:45;15.27;;;10.87;;
12437;SDS011;6283;51.330;12.374;2023-04-15T11:58:45;14.90;;;11.53;;
12437;SDS011;6283;51.330;12.374;2023-04-15T12:01:11;13.00;;;11.30;;
12437;SDS011;6283;51.330;12.374;2023-04-15T12:13:53;12.03;;;9.53;;
12437;SDS011;6283;51.330;12.374;2023-04-15T12:16:20;11.73;;;9.67;;
12437;SDS011;6283;51.330;12.374;2023-04-15T12:18:50;10.57;;;9.03;;
12437;SDS011;6283;51.330;12.374;2023-04-15T12:21:20;9.40;;;8.40;;
12437;SDS011;6283;51.330;12.374;2023-04-15T12:23:54;10.87;;;8.40;;
12437;SDS011;6283;51.330;12.374;2023-04-15T12:26:27;10.27;;;8.90;;
12437;SDS011;6283;51.330;12.374;2023-04-15T12:28:59;14.77;;;9.87;;
12437;SDS011;6283;51.330;12.374;2023-04-15T12:31:26;9.63;;;8.60;;
12437;SDS011;6283;51.330;12.374;2023-04-15T12:33:54;9.60;;;7.97;;
12437;SDS011;6283;51.330;12.374;2023-04-15T12:36:20;8.80;;;7.83;;
12437;SDS011;6283;51.330;12.374;2023-04-15T12:38:46;8.37;;;7.50;;
12437;SDS011;6283;51.330;12.374;2023-04-15T12:41:11;7.57;;;6.77;;
12437;SDS011;6283;51.330;12.374;2023-04-15T12:43:37;8.47;;;6.70;;
12437;SDS011;6283;51.330;12.374;2023-04-15T12:46:03;7.70;;;6.90;;
12437;SDS011;6283;51.330;12.374;2023-04-15T12:48:29;7.00;;;6.30;;
12437;SDS011;6283;51.330;12.374;2023-04-15T12:50:54;6.20;;;5.70;;
12437;SDS011;6283;51.330;12.374;2023-04-15T12:53:20;6.73;;;6.03;;
12437;SDS011;6283;51.330;12.374;2023-04-15T12:55:46;6.47;;;5.57;;
12437;SDS011;6283;51.330;12.374;2023-04-15T12:58:12;7.50;;;6.13;;
12437;SDS011;6283;51.330;12.374;2023-04-15T13:00:37;6.87;;;6.17;;
12437;SDS011;6283;51.330;12.374;2023-04-15T13:03:03;5.63;;;5.13;;
12437;SDS011;6283;51.330;12.374;2023-04-15T13:05:29;6.20;;;5.60;;
12437;SDS011;6283;51.330;12.374;2023-04-15T13:07:55;8.87;;;6.43;;
12437;SDS011;6283;51.330;12.374;2023-04-15T13:10:20;6.00;;;5.40;;
12437;SDS011;6283;51.330;12.374;2023-04-15T13:12:47;6.93;;;5.10;;
12437;SDS011;6283;51.330;12.374;2023-04-15T13:15:16;6.77;;;4.90;;
12437;SDS011;6283;51.330;12.374;2023-04-15T13:17:44;5.30;;;4.77;;
12437;SDS011;6283;51.330;12.374;2023-04-15T13:20:10;5.57;;;5.07;;
12437;SDS011;6283;51.330;12.374;2023-04-15T13:22:36;4.70;;;4.20;;
12437;SDS011;6283;51.330;12.374;2023-04-15T13:25:01;7.13;;;5.00;;
12437;SDS011;6283;51.330;12.374;2023-04-15T13:27:27;6.37;;;4.77;;
12437;SDS011;6283;51.330;12.374;2023-04-15T13:29:53;5.63;;;5.00;;
12437;SDS011;6283;51.330;12.374;2023-04-15T13:32:19;4.87;;;4.40;;
12437;SDS011;6283;51.330;12.374;2023-04-15T13:34:44;4.33;;;3.93;;
12437;SDS011;6283;51.330;12.374;2023-04-15T13:37:10;4.97;;;4.40;;
12437;SDS011;6283;51.330;12.374;2023-04-15T13:39:36;4.07;;;3.77;;
12437;SDS011;6283;51.330;12.374;2023-04-15T13:42:01;4.30;;;3.90;;
12437;SDS011;6283;51.330;12.374;2023-04-15T13:44:27;4.33;;;3.93;;
12437;SDS011;6283;51.330;12.374;2023-04-15T13:46:53;4.80;;;4.40;;
12437;SDS011;6283;51.330;12.374;2023-04-15T13:49:19;5.47;;;4.70;;
12437;SDS011;6283;51.330;12.374;2023-04-15T13:51:45;5.07;;;4.63;;
12437;SDS011;6283;51.330;12.374;2023-04-15T13:54:10;5.10;;;4.43;;
12437;SDS011;6283;51.330;12.374;2023-04-15T13:56:36;4.90;;;4.50;;
12437;SDS011;6283;51.330;12.374;2023-04-15T13:59:02;5.23;;;4.83;;
12437;SDS011;6283;51.330;12.374;2023-04-15T14:01:28;5.80;;;4.50;;
12437;SDS011;6283;51.330;12.374;2023-04-15T14:03:54;5.47;;;4.97;;
12437;SDS011;6283;51.330;12.374;2023-04-15T14:06:20;4.83;;;4.37;;
12437;SDS011;6283;51.330;12.374;2023-04-15T14:08:46;4.60;;;4.20;;
12437;SDS011;6283;51.330;12.374;2023-04-15T14:11:11;4.90;;;4.40;;
12437;SDS011;6283;51.330;12.374;2023-04-15T14:13:37;5.03;;;4.33;;
12437;SDS011;6283;51.330;12.374;2023-04-15T14:16:02;4.13;;;3.73;;
12437;SDS011;6283;51.330;12.374;2023-04-15T14:18:28;4.37;;;3.97;;
12437;SDS011;6283;51.330;12.374;2023-04-15T14:20:54;4.77;;;4.27;;
12437;SDS011;6283;51.330;12.374;2023-04-15T14:23:20;4.67;;;4.10;;
12437;SDS011;6283;51.330;12.374;2023-04-15T14:25:46;5.07;;;4.33;;
12437;SDS011;6283;51.330;12.374;2023-04-15T14:28:12;4.30;;;3.90;;
12437;SDS011;6283;51.330;12.374;2023-04-15T14:30:38;4.97;;;4.40;;
12437;SDS011;6283;51.330;12.374;2023-04-15T14:33:04;5.60;;;4.53;;
12437;SDS011;6283;51.330;12.374;2023-04-15T14:35:30;5.03;;;4.53;;
12437;SDS011;6283;51.330;12.374;2023-04-15T14:37:56;5.03;;;4.57;;
12437;SDS011;6283;51.330;12.374;2023-04-15T14:40:22;5.17;;;4.67;;
12437;SDS011;6283;51.330;12.374;2023-04-15T14:42:47;5.47;;;4.93;;
12437;SDS011;6283;51.330;12.374;2023-04-15T14:45:13;5.17;;;4.67;;
12437;SDS011;6283;51.330;12.374;2023-04-15T14:47:39;5.30;;;4.70;;
12437;SDS011;6283;51.330;12.374;2023-04-15T14:50:04;4.53;;;4.13;;
12437;SDS011;6283;51.330;12.374;2023-04-15T14:52:31;5.70;;;5.20;;
12437;SDS011;6283;51.330;12.374;2023-04-15T14:55:06;5.93;;;5.00;;
12437;SDS011;6283;51.330;12.374;2023-04-15T14:57:34;5.37;;;4.87;;
12437;SDS011;6283;51.330;12.374;2023-04-15T15:00:01;5.60;;;5.10;;
12437;SDS011;6283;51.330;12.374;2023-04-15T15:02:28;5.27;;;4.77;;
12437;SDS011;6283;51.330;12.374;2023-04-15T15:04:53;5.27;;;4.77;;
12437;SDS011;6283;51.330;12.374;2023-04-15T15:07:20;4.90;;;4.50;;